Time;durP1;ratioP1;P1;durP2;ratioP2;P2;SDS_P1;SDS_P2;PMS_P1;PMS_P2;Temp;Humidity;BMP_temperature;BMP_pressure;BME280_temperature;BME280_humidity;BME280_pressure;Samples;Min_cycle;Max_cycle;Signal;HPM_P1;HPM_P2
2021/08/28 00:00:24;;;;;;;5.13;1.65;;;16.10;93.60;;;;;;5053081;28;20073;-76
2021/08/28 00:02:50;;;;;;;4.22;1.83;;;16.10;93.60;;;;;;5052552;28;20052;-76
2021/08/28 00:05:16;;;;;;;6.72;1.50;;;16.10;93.60;;;;;;5053146;28;20048;-76
2021/08/28 00:07:41;;;;;;;4.07;1.48;;;16.10;93.60;;;;;;5052376;28;20025;-75
2021/08/28 00:10:08;;;;;;;2.35;1.27;;;16.00;93.60;;;;;;5053043;28;20021;-75
2021/08/28 00:12:34;;;;;;;4.65;1.42;;;16.00;93.70;;;;;;5053060;28;20489;-75
2021/08/28 00:15:00;;;;;;;5.50;1.73;;;16.00;93.70;;;;;;5052258;28;20102;-75
2021/08/28 00:17:32;;;;;;;3.30;1.50;;;16.00;93.80;;;;;;5052858;28;20488;-75
2021/08/28 00:20:09;;;;;;;3.78;1.30;;;16.10;93.80;;;;;;5052284;28;20051;-75
2021/08/28 00:22:36;;;;;;;2.70;1.23;;;16.10;93.80;;;;;;5052444;28;20498;-75
2021/08/28 00:25:02;;;;;;;4.32;1.70;;;16.10;93.80;;;;;;5052168;28;20257;-75
2021/08/28 00:27:27;;;;;;;4.55;1.48;;;16.20;93.70;;;;;;5051326;28;20029;-75
2021/08/28 00:29:53;;;;;;;3.20;1.30;;;16.20;93.70;;;;;;5051999;28;20453;-75
2021/08/28 00:32:18;;;;;;;4.70;1.42;;;16.20;93.60;;;;;;5051362;28;20025;-75
2021/08/28 00:34:44;;;;;;;2.67;1.30;;;16.30;93.60;;;;;;5052226;28;20468;-75
2021/08/28 00:37:10;;;;;;;3.25;1.30;;;16.30;93.60;;;;;;5050716;28;20083;-76
2021/08/28 00:39:35;;;;;;;4.50;1.70;;;16.30;93.60;;;;;;5052155;28;20456;-75
2021/08/28 00:42:01;;;;;;;3.67;1.52;;;16.30;93.60;;;;;;5051861;28;20462;-75
2021/08/28 00:44:27;;;;;;;5.97;2.00;;;16.30;93.60;;;;;;5052348;28;20472;-75
2021/08/28 00:46:54;;;;;;;3.50;1.08;;;16.40;93.60;;;;;;5051378;28;20028;-75
2021/08/28 00:49:20;;;;;;;4.80;1.38;;;16.30;93.50;;;;;;5052241;28;20377;-75
2021/08/28 00:51:46;;;;;;;3.58;1.40;;;16.40;93.60;;;;;;5051281;28;20027;-75
2021/08/28 00:54:12;;;;;;;3.22;1.55;;;16.40;93.60;;;;;;5051670;28;20021;-74
2021/08/28 00:56:41;;;;;;;3.17;1.10;;;16.40;93.60;;;;;;5050760;28;20088;-75
2021/08/28 00:59:07;;;;;;;3.40;1.73;;;16.40;93.60;;;;;;5051403;28;20053;-74
2021/08/28 01:01:37;;;;;;;6.70;2.10;;;16.30;93.60;;;;;;5052219;28;20079;-74
2021/08/28 01:04:05;;;;;;;4.45;1.52;;;16.30;93.70;;;;;;5050043;28;20497;-74
2021/08/28 01:06:51;;;;;;;4.05;1.60;;;16.30;93.70;;;;;;5051857;28;20021;-74
2021/08/28 01:09:36;;;;;;;3.38;1.63;;;16.30;93.80;;;;;;5051986;28;20025;-74
2021/08/28 01:12:17;;;;;;;2.80;1.42;;;16.30;93.80;;;;;;5051421;28;20560;-75
2021/08/28 01:14:46;;;;;;;5.22;1.67;;;16.30;93.80;;;;;;5052004;28;20036;-74
2021/08/28 01:17:14;;;;;;;5.55;1.85;;;16.30;93.80;;;;;;5051550;28;20029;-74
2021/08/28 01:19:39;;;;;;;4.88;1.70;;;16.30;93.90;;;;;;5050565;28;20029;-74
2021/08/28 01:22:12;;;;;;;3.85;1.60;;;16.30;93.90;;;;;;5051309;28;20271;-75
2021/08/28 01:24:41;;;;;;;4.75;1.70;;;16.20;94.00;;;;;;5051858;28;20105;-75
2021/08/28 01:27:19;;;;;;;3.90;1.50;;;16.20;94.00;;;;;;5051335;28;20033;-74
2021/08/28 01:29:47;;;;;;;4.57;1.60;;;16.30;94.00;;;;;;5051819;28;20104;-74
2021/08/28 01:32:14;;;;;;;5.25;1.63;;;16.30;94.00;;;;;;5050438;28;20108;-74
2021/08/28 01:34:40;;;;;;;4.15;1.85;;;16.30;94.00;;;;;;5051749;28;20082;-74
2021/08/28 01:37:10;;;;;;;4.00;1.73;;;16.30;93.90;;;;;;5049400;28;20037;-74
2021/08/28 01:39:37;;;;;;;4.35;1.63;;;16.30;93.90;;;;;;5051848;28;20467;-74
2021/08/28 01:42:05;;;;;;;3.90;1.80;;;16.40;93.90;;;;;;5051346;28;20112;-75
2021/08/28 01:44:31;;;;;;;5.50;1.50;;;16.30;93.90;;;;;;5051701;28;20064;-75
2021/08/28 01:46:57;;;;;;;4.60;1.80;;;16.30;94.00;;;;;;5050735;28;20047;-74
2021/08/28 01:49:24;;;;;;;4.57;1.98;;;16.30;93.90;;;;;;5052099;28;20461;-75
2021/08/28 01:51:50;;;;;;;4.95;1.52;;;16.30;94.00;;;;;;5050787;28;20496;-76
2021/08/28 01:54:16;;;;;;;6.05;1.90;;;16.30;94.00;;;;;;5051520;28;20021;-75
2021/08/28 01:56:41;;;;;;;4.82;1.83;;;16.30;94.10;;;;;;5051837;28;20465;-75
2021/08/28 01:59:07;;;;;;;2.63;1.38;;;16.20;94.10;;;;;;5052126;28;20028;-75
2021/08/28 02:01:33;;;;;;;6.70;1.70;;;16.20;94.20;;;;;;5055153;28;20366;-74
2021/08/28 02:03:59;;;;;;;3.70;1.48;;;16.20;94.30;;;;;;5054829;28;20036;-74
2021/08/28 02:06:34;;;;;;;4.50;1.80;;;16.10;94.30;;;;;;5055653;28;20372;-74
2021/08/28 02:09:04;;;;;;;4.45;2.00;;;16.10;94.40;;;;;;5054522;28;20068;-74
2021/08/28 02:11:45;;;;;;;5.38;1.88;;;16.10;94.40;;;;;;5054285;28;20103;-74
2021/08/28 02:14:20;;;;;;;4.60;2.00;;;16.20;94.40;;;;;;5053433;28;20100;-74
2021/08/28 02:16:46;;;;;;;4.07;1.67;;;16.20;94.40;;;;;;5055308;28;20021;-74
2021/08/28 02:19:22;;;;;;;3.63;1.90;;;16.20;94.30;;;;;;5054515;28;20108;-74
2021/08/28 02:21:52;;;;;;;8.82;1.65;;;16.20;94.40;;;;;;5054874;28;20499;-74
2021/08/28 02:24:26;;;;;;;6.18;1.98;;;16.20;94.40;;;;;;5055026;28;20487;-74
2021/08/28 02:27:19;;;;;;;3.10;1.70;;;16.20;94.40;;;;;;5054379;28;20021;-74
2021/08/28 02:29:52;;;;;;;4.40;1.75;;;16.20;94.40;;;;;;5055314;28;20044;-74
2021/08/28 02:32:19;;;;;;;3.25;1.50;;;16.20;94.40;;;;;;5054855;28;20516;-74
2021/08/28 02:34:47;;;;;;;4.22;1.60;;;16.30;94.40;;;;;;5055000;28;20036;-74
2021/08/28 02:37:15;;;;;;;4.63;1.95;;;16.30;94.40;;;;;;5054100;28;20108;-74
2021/08/28 02:39:43;;;;;;;3.65;1.85;;;16.30;94.40;;;;;;5054946;28;20478;-75
2021/08/28 02:42:10;;;;;;;4.32;1.83;;;16.30;94.50;;;;;;5054178;28;20095;-74
2021/08/28 02:44:39;;;;;;;8.32;2.17;;;16.30;94.50;;;;;;5053299;28;20036;-74
2021/08/28 02:47:06;;;;;;;4.32;1.55;;;16.20;94.50;;;;;;5054052;28;20022;-74
2021/08/28 02:49:34;;;;;;;4.85;1.58;;;16.20;94.50;;;;;;5053278;28;20363;-74
2021/08/28 02:52:02;;;;;;;5.50;2.00;;;16.20;94.50;;;;;;5053930;28;20029;-74
2021/08/28 02:54:29;;;;;;;4.25;1.85;;;16.30;94.60;;;;;;5054213;28;20079;-75
2021/08/28 02:56:57;;;;;;;6.63;2.10;;;16.30;94.60;;;;;;5053796;28;20041;-75
2021/08/28 02:59:24;;;;;;;2.55;1.50;;;16.30;94.50;;;;;;5054098;28;20021;-75
2021/08/28 03:01:50;;;;;;;4.53;2.00;;;16.30;94.50;;;;;;5054382;28;20511;-75
2021/08/28 03:04:19;;;;;;;2.75;1.48;;;16.40;94.50;;;;;;5053668;28;20059;-75
2021/08/28 03:06:46;;;;;;;5.75;1.92;;;16.40;94.50;;;;;;5054297;28;20021;-75
2021/08/28 03:09:12;;;;;;;4.43;1.88;;;16.40;94.50;;;;;;5053731;28;20159;-75
2021/08/28 03:11:38;;;;;;;3.63;1.60;;;16.40;94.40;;;;;;5053519;28;20028;-73
2021/08/28 03:14:04;;;;;;;3.95;1.60;;;16.40;94.50;;;;;;5053424;28;20029;-74
2021/08/28 03:16:30;;;;;;;4.95;1.85;;;16.40;94.60;;;;;;5054079;28;20075;-74
2021/08/28 03:18:58;;;;;;;5.18;2.03;;;16.40;94.60;;;;;;5053188;28;20098;-75
2021/08/28 03:21:27;;;;;;;4.85;2.40;;;16.30;94.60;;;;;;5054190;28;20035;-76
2021/08/28 03:23:56;;;;;;;4.97;1.70;;;16.40;94.80;;;;;;5054010;28;20022;-75
2021/08/28 03:26:23;;;;;;;3.60;1.83;;;16.30;94.90;;;;;;5054204;28;20096;-75
2021/08/28 03:28:51;;;;;;;1.70;1.20;;;16.30;94.90;;;;;;5053644;28;20025;-75
2021/08/28 03:31:17;;;;;;;3.90;1.58;;;16.30;94.90;;;;;;5051949;28;20021;-75
2021/08/28 03:33:48;;;;;;;3.38;1.70;;;16.30;94.90;;;;;;5053552;28;20032;-75
2021/08/28 03:36:16;;;;;;;4.40;1.60;;;16.30;94.90;;;;;;5052921;28;20029;-74
2021/08/28 03:38:43;;;;;;;2.80;1.55;;;16.30;95.00;;;;;;5053212;28;20485;-75
2021/08/28 03:41:09;;;;;;;3.63;1.80;;;16.30;95.00;;;;;;5052975;28;20381;-74
2021/08/28 03:43:35;;;;;;;6.28;1.90;;;16.40;95.00;;;;;;5053500;28;20017;-74
2021/08/28 03:46:03;;;;;;;3.97;1.60;;;16.40;94.90;;;;;;5052771;28;20051;-75
2021/08/28 03:48:30;;;;;;;3.70;1.60;;;16.40;94.90;;;;;;5053636;28;20060;-75
2021/08/28 03:50:58;;;;;;;3.05;1.30;;;16.50;94.90;;;;;;5053437;28;20472;-75
2021/08/28 03:53:24;;;;;;;3.55;1.55;;;16.50;94.80;;;;;;5053288;28;20036;-75
2021/08/28 03:55:50;;;;;;;3.78;1.63;;;16.60;94.80;;;;;;5052012;28;20080;-75
2021/08/28 03:58:15;;;;;;;3.67;1.50;;;16.50;94.90;;;;;;5052274;28;20047;-75
2021/08/28 04:00:41;;;;;;;3.58;1.70;;;16.40;95.00;;;;;;5053246;28;20466;-74
2021/08/28 04:03:07;;;;;;;3.95;1.48;;;16.40;95.10;;;;;;5052357;28;20025;-77
2021/08/28 04:05:33;;;;;;;4.10;1.60;;;16.40;95.10;;;;;;5053204;28;20407;-76
2021/08/28 04:07:58;;;;;;;3.42;1.60;;;16.40;95.20;;;;;;5052501;28;20070;-76
2021/08/28 04:10:25;;;;;;;3.17;1.60;;;16.40;95.20;;;;;;5051835;28;20100;-76
2021/08/28 04:12:50;;;;;;;5.32;1.70;;;16.30;95.20;;;;;;5053081;28;20048;-75
2021/08/28 04:15:16;;;;;;;4.78;1.88;;;16.30;95.20;;;;;;5052400;28;20461;-76
2021/08/28 04:17:42;;;;;;;3.38;1.58;;;16.30;95.30;;;;;;5052669;28;20477;-75
2021/08/28 04:20:08;;;;;;;3.72;1.70;;;16.30;95.30;;;;;;5051985;28;20533;-75
2021/08/28 04:22:33;;;;;;;3.47;1.63;;;16.40;95.30;;;;;;5050504;28;20031;-75
2021/08/28 04:24:59;;;;;;;4.40;2.08;;;16.30;95.30;;;;;;5052131;28;20092;-76
2021/08/28 04:27:25;;;;;;;3.45;1.45;;;16.30;95.40;;;;;;5052753;28;20116;-75
2021/08/28 04:29:50;;;;;;;4.78;1.60;;;16.30;95.40;;;;;;5051331;28;20021;-75
2021/08/28 04:32:16;;;;;;;4.65;1.88;;;16.30;95.40;;;;;;5051747;28;20082;-75
2021/08/28 04:34:41;;;;;;;4.00;1.83;;;16.30;95.40;;;;;;5052624;28;20425;-75
2021/08/28 04:37:07;;;;;;;6.20;2.10;;;16.40;95.40;;;;;;5051827;28;20025;-75
2021/08/28 04:39:33;;;;;;;4.18;1.80;;;16.40;95.30;;;;;;5050723;28;20045;-75
2021/08/28 04:41:58;;;;;;;3.95;1.55;;;16.40;95.40;;;;;;5052562;28;20469;-75
2021/08/28 04:44:24;;;;;;;5.35;2.05;;;16.40;95.50;;;;;;5051804;28;20025;-75
2021/08/28 04:46:50;;;;;;;6.28;1.90;;;16.30;95.50;;;;;;5052363;28;20029;-75
2021/08/28 04:49:15;;;;;;;4.25;2.00;;;16.30;95.60;;;;;;5051664;28;20021;-75
2021/08/28 04:51:41;;;;;;;5.90;2.05;;;16.30;95.60;;;;;;5051009;28;20017;-75
2021/08/28 04:54:07;;;;;;;4.57;1.75;;;16.30;95.60;;;;;;5051966;28;20439;-75
2021/08/28 04:56:32;;;;;;;3.05;1.67;;;16.30;95.60;;;;;;5049011;28;20064;-75
2021/08/28 04:58:58;;;;;;;4.85;2.00;;;16.30;95.60;;;;;;5040579;28;20055;-76
2021/08/28 05:01:24;;;;;;;3.65;1.80;;;16.30;95.60;;;;;;5040701;28;20064;-76
2021/08/28 05:03:49;;;;;;;4.30;1.80;;;16.30;95.60;;;;;;5039996;28;20018;-76
2021/08/28 05:06:15;;;;;;;3.80;1.92;;;16.30;95.60;;;;;;5031583;28;20021;-75
2021/08/28 05:08:40;;;;;;;2.83;1.83;;;16.30;95.60;;;;;;5043066;28;20024;-76
2021/08/28 05:11:06;;;;;;;6.00;2.33;;;16.30;95.60;;;;;;5048283;28;20047;-75
2021/08/28 05:13:32;;;;;;;3.15;1.90;;;16.30;95.50;;;;;;5043772;28;20033;-75
2021/08/28 05:15:57;;;;;;;4.57;2.10;;;16.40;95.50;;;;;;5032190;28;20040;-75
2021/08/28 05:18:23;;;;;;;3.28;1.77;;;16.40;95.40;;;;;;5039663;28;20096;-77
2021/08/28 05:20:49;;;;;;;3.17;1.80;;;16.50;95.40;;;;;;5061117;28;20032;-76
2021/08/28 05:23:14;;;;;;;3.42;1.75;;;16.50;95.30;;;;;;5071281;28;20021;-76
2021/08/28 05:25:40;;;;;;;6.50;2.60;;;16.50;95.30;;;;;;5055988;28;20025;-76
2021/08/28 05:28:06;;;;;;;6.15;2.78;;;16.50;95.30;;;;;;5050787;28;20481;-75
2021/08/28 05:30:32;;;;;;;3.55;1.80;;;16.50;95.30;;;;;;5051730;28;20445;-76
2021/08/28 05:32:57;;;;;;;5.80;2.38;;;16.50;95.40;;;;;;5043457;28;20026;-76
2021/08/28 05:35:23;;;;;;;3.58;1.88;;;16.50;95.40;;;;;;5050494;28;20106;-75
2021/08/28 05:37:49;;;;;;;3.55;2.45;;;16.40;95.40;;;;;;5054794;28;20088;-75
2021/08/28 05:40:19;;;;;;;4.70;2.13;;;16.40;95.50;;;;;;5053283;28;20036;-75
2021/08/28 05:42:44;;;;;;;4.60;1.65;;;16.40;95.50;;;;;;5035699;28;20025;-75
2021/08/28 05:45:10;;;;;;;5.15;2.45;;;16.50;95.50;;;;;;5045161;28;20025;-75
2021/08/28 05:47:37;;;;;;;4.22;1.95;;;16.50;95.50;;;;;;5052469;28;20037;-75
2021/08/28 05:50:03;;;;;;;5.30;2.13;;;16.50;95.50;;;;;;5044138;28;20031;-76
2021/08/28 05:52:29;;;;;;;7.72;2.38;;;16.50;95.50;;;;;;5054696;28;20021;-76
2021/08/28 05:54:55;;;;;;;6.68;3.08;;;16.50;95.50;;;;;;5042877;28;20025;-76
2021/08/28 05:57:21;;;;;;;11.57;5.25;;;16.50;95.50;;;;;;5052893;28;20051;-75
2021/08/28 05:59:47;;;;;;;6.10;3.15;;;16.50;95.50;;;;;;5046338;28;20033;-75
2021/08/28 06:02:13;;;;;;;5.18;2.53;;;16.60;95.40;;;;;;5035828;28;20506;-75
2021/08/28 06:04:39;;;;;;;5.50;2.30;;;16.70;95.30;;;;;;5046620;28;20021;-75
2021/08/28 06:07:05;;;;;;;5.85;2.17;;;16.80;95.20;;;;;;5035014;28;20354;-75
2021/08/28 06:09:31;;;;;;;3.10;1.83;;;16.80;95.20;;;;;;5046029;28;20313;-75
2021/08/28 06:11:57;;;;;;;5.88;2.05;;;16.90;95.20;;;;;;5045891;28;20017;-75
2021/08/28 06:14:22;;;;;;;5.32;2.33;;;16.90;95.20;;;;;;5053849;28;20021;-75
2021/08/28 06:16:48;;;;;;;3.90;2.05;;;16.90;95.20;;;;;;5036963;28;20097;-75
2021/08/28 06:19:14;;;;;;;4.45;2.00;;;16.90;95.20;;;;;;5034598;28;20049;-75
2021/08/28 06:21:40;;;;;;;7.15;3.75;;;16.90;95.20;;;;;;5034994;28;20033;-75
2021/08/28 06:24:06;;;;;;;7.15;3.75;;;16.90;95.20;;;;;;5035329;28;20099;-75
2021/08/28 06:26:32;;;;;;;5.68;2.90;;;17.00;95.20;;;;;;5049782;28;20048;-75
2021/08/28 06:28:57;;;;;;;6.05;2.35;;;17.00;95.20;;;;;;5052439;28;20462;-74
2021/08/28 06:31:23;;;;;;;6.82;2.55;;;17.00;95.20;;;;;;5053923;28;20429;-75
2021/08/28 06:33:49;;;;;;;4.22;2.00;;;17.00;95.20;;;;;;5055195;28;20023;-75
2021/08/28 06:36:14;;;;;;;6.25;2.15;;;17.00;95.20;;;;;;5053916;28;20023;-75
2021/08/28 06:38:40;;;;;;;4.45;1.83;;;17.00;95.30;;;;;;5049542;28;20051;-76
2021/08/28 06:41:06;;;;;;;3.35;1.60;;;16.90;95.40;;;;;;5059361;28;20028;-76
2021/08/28 06:43:32;;;;;;;3.80;1.92;;;16.80;95.40;;;;;;5073398;28;20082;-76
2021/08/28 06:45:58;;;;;;;2.95;1.52;;;16.90;95.50;;;;;;5057504;28;20075;-75
2021/08/28 06:48:24;;;;;;;2.95;1.67;;;16.90;95.50;;;;;;5053780;28;20477;-75
2021/08/28 06:50:50;;;;;;;5.65;2.10;;;16.90;95.50;;;;;;5053834;28;20086;-75
2021/08/28 06:53:16;;;;;;;4.43;1.80;;;16.90;95.50;;;;;;5067593;28;20474;-77
2021/08/28 06:55:42;;;;;;;3.58;1.73;;;17.00;95.80;;;;;;5038696;28;20051;-75
2021/08/28 06:58:08;;;;;;;8.35;4.63;;;17.00;95.70;;;;;;5038111;28;20036;-75
2021/08/28 07:00:34;;;;;;;10.30;5.63;;;17.10;95.40;;;;;;5050374;28;20033;-75
2021/08/28 07:02:59;;;;;;;7.57;3.75;;;17.10;95.40;;;;;;5051124;28;20022;-76
2021/08/28 07:05:25;;;;;;;7.85;2.90;;;17.20;95.30;;;;;;5049008;28;20025;-78
2021/08/28 07:07:51;;;;;;;8.10;2.53;;;17.30;95.30;;;;;;5045477;28;20520;-75
2021/08/28 07:10:17;;;;;;;5.18;2.53;;;17.30;95.30;;;;;;5046918;28;20103;-75
2021/08/28 07:12:43;;;;;;;5.10;2.40;;;17.30;95.30;;;;;;5053997;28;20055;-75
2021/08/28 07:15:10;;;;;;;4.95;2.22;;;17.30;95.30;;;;;;5035582;28;20133;-76
2021/08/28 07:17:35;;;;;;;6.13;2.58;;;17.40;95.30;;;;;;5050568;28;20036;-75
2021/08/28 07:20:02;;;;;;;4.53;2.15;;;17.40;95.30;;;;;;5053621;28;20057;-75
2021/08/28 07:22:28;;;;;;;4.78;2.08;;;17.40;95.30;;;;;;5037888;28;20083;-75
2021/08/28 07:24:54;;;;;;;4.25;2.20;;;17.40;95.30;;;;;;5042259;28;20025;-77
2021/08/28 07:27:23;;;;;;;5.97;2.53;;;17.40;95.30;;;;;;5044798;28;20028;-77
2021/08/28 07:29:49;;;;;;;4.75;2.05;;;17.50;95.30;;;;;;5034099;28;20025;-77
2021/08/28 07:32:15;;;;;;;8.07;2.72;;;17.50;95.30;;;;;;5045715;28;20021;-77
2021/08/28 07:34:40;;;;;;;5.13;2.35;;;17.60;95.30;;;;;;5044572;28;20466;-75
2021/08/28 07:37:06;;;;;;;4.80;2.70;;;17.60;95.20;;;;;;5049298;28;20028;-75
2021/08/28 07:39:33;;;;;;;8.13;3.00;;;17.70;95.20;;;;;;5049804;28;20759;-78
2021/08/28 07:41:58;;;;;;;6.10;2.60;;;17.70;95.20;;;;;;5040414;28;20099;-77
2021/08/28 07:44:24;;;;;;;7.88;2.95;;;17.70;95.10;;;;;;5044427;28;20053;-76
2021/08/28 07:46:50;;;;;;;4.32;2.15;;;17.70;95.10;;;;;;5053521;28;20053;-76
2021/08/28 07:49:16;;;;;;;6.45;2.90;;;17.70;95.10;;;;;;5035155;28;20026;-76
2021/08/28 07:51:42;;;;;;;6.13;2.88;;;17.70;95.10;;;;;;5055953;28;20032;-78
2021/08/28 07:54:08;;;;;;;5.18;2.72;;;17.80;95.20;;;;;;5049391;28;20029;-78
2021/08/28 07:56:33;;;;;;;5.93;2.42;;;17.80;95.20;;;;;;5071297;28;20334;-76
2021/08/28 07:58:59;;;;;;;5.60;2.63;;;17.80;95.10;;;;;;5067871;28;20451;-76
2021/08/28 08:01:25;;;;;;;8.02;2.65;;;18.00;95.10;;;;;;5052608;28;20096;-77
2021/08/28 08:03:51;;;;;;;7.93;3.47;;;18.00;95.00;;;;;;5053271;28;20028;-76
2021/08/28 08:06:16;;;;;;;4.28;2.45;;;18.10;94.90;;;;;;5052398;28;20086;-77
2021/08/28 08:08:42;;;;;;;6.88;3.25;;;18.20;94.80;;;;;;5051836;28;20117;-75
2021/08/28 08:11:08;;;;;;;6.53;2.97;;;18.20;94.80;;;;;;5048571;28;20105;-76
2021/08/28 08:13:33;;;;;;;4.57;2.47;;;18.30;94.80;;;;;;5047857;28;20434;-76
2021/08/28 08:15:59;;;;;;;16.08;7.00;;;18.30;94.80;;;;;;5031414;28;20549;-76
2021/08/28 08:18:25;;;;;;;10.65;4.57;;;18.30;94.80;;;;;;5032388;28;20033;-76
2021/08/28 08:20:50;;;;;;;7.13;4.47;;;18.30;94.70;;;;;;5033129;28;20021;-76
2021/08/28 08:23:16;;;;;;;11.15;5.68;;;18.40;94.70;;;;;;5032133;28;20100;-76
2021/08/28 08:25:42;;;;;;;8.32;4.93;;;18.40;94.60;;;;;;5032837;28;20053;-76
2021/08/28 08:28:07;;;;;;;6.57;3.58;;;18.50;94.60;;;;;;5032442;28;20029;-75
2021/08/28 08:30:33;;;;;;;6.22;3.10;;;18.50;94.50;;;;;;5032453;28;20486;-76
2021/08/28 08:32:58;;;;;;;6.15;3.00;;;18.50;94.40;;;;;;5032693;28;20025;-75
2021/08/28 08:35:24;;;;;;;6.93;3.13;;;18.50;94.50;;;;;;5047163;28;20075;-76
2021/08/28 08:37:52;;;;;;;6.60;2.85;;;18.50;94.50;;;;;;5032175;28;20470;-75
2021/08/28 08:40:19;;;;;;;6.90;3.33;;;18.50;94.50;;;;;;5032148;28;20056;-75
2021/08/28 08:42:47;;;;;;;4.90;2.67;;;18.50;94.40;;;;;;5057857;28;20108;-75
2021/08/28 08:45:13;;;;;;;6.18;3.05;;;18.60;94.30;;;;;;5072539;28;20032;-75
2021/08/28 08:47:39;;;;;;;6.32;2.95;;;18.70;94.10;;;;;;5071467;28;20357;-75
2021/08/28 08:50:06;;;;;;;9.95;3.70;;;18.70;94.00;;;;;;5072000;28;20116;-75
2021/08/28 08:52:33;;;;;;;5.68;3.30;;;18.70;94.00;;;;;;5071569;28;20023;-76
2021/08/28 08:54:59;;;;;;;6.55;3.25;;;18.70;94.00;;;;;;5072374;28;20021;-75
2021/08/28 08:57:25;;;;;;;7.13;3.05;;;18.70;93.90;;;;;;5038473;28;20033;-75
2021/08/28 08:59:50;;;;;;;9.73;3.88;;;18.80;93.90;;;;;;5033057;28;20034;-76
2021/08/28 09:02:16;;;;;;;7.75;3.22;;;18.80;93.80;;;;;;5033342;28;20021;-76
2021/08/28 09:04:42;;;;;;;4.97;2.90;;;18.80;93.70;;;;;;5031383;28;20017;-75
2021/08/28 09:07:12;;;;;;;5.22;2.67;;;19.00;93.60;;;;;;5040167;28;20044;-75
2021/08/28 09:09:38;;;;;;;5.70;2.88;;;19.00;93.50;;;;;;5037468;28;20384;-76
2021/08/28 09:12:08;;;;;;;8.52;3.72;;;19.00;93.40;;;;;;5032569;28;20091;-77
2021/08/28 09:14:34;;;;;;;6.63;2.85;;;19.00;93.30;;;;;;5031480;28;20083;-76
2021/08/28 09:17:14;;;;;;;6.25;2.55;;;18.90;93.30;;;;;;5031721;28;20025;-75
2021/08/28 09:19:42;;;;;;;7.82;3.28;;;18.90;93.40;;;;;;5031433;28;20808;-75
2021/08/28 09:22:29;;;;;;;6.63;3.38;;;19.00;93.40;;;;;;5039420;28;20032;-76
2021/08/28 09:25:06;;;;;;;6.32;3.65;;;19.10;93.20;;;;;;5032892;28;20030;-76
2021/08/28 09:27:39;;;;;;;6.95;2.92;;;19.20;93.00;;;;;;5050916;28;20037;-75
2021/08/28 09:30:24;;;;;;;6.07;2.72;;;19.30;92.80;;;;;;5051722;28;20078;-74
2021/08/28 09:32:53;;;;;;;6.68;3.15;;;19.40;92.70;;;;;;5051624;28;20025;-76
2021/08/28 09:35:21;;;;;;;8.40;2.70;;;19.40;92.60;;;;;;5048787;28;20027;-81
2021/08/28 09:38:01;;;;;;;5.25;2.50;;;19.40;92.40;;;;;;5049362;28;20373;-81
2021/08/28 09:40:33;;;;;;;5.75;2.55;;;19.40;92.40;;;;;;5047307;28;20045;-81
2021/08/28 09:43:03;;;;;;;6.55;2.70;;;19.40;92.40;;;;;;5049696;28;20096;-81
2021/08/28 09:45:29;;;;;;;9.30;4.75;;;19.40;92.40;;;;;;5051221;28;20527;-81
2021/08/28 09:47:56;;;;;;;9.50;4.15;;;19.40;92.40;;;;;;5049318;28;20025;-81
2021/08/28 09:50:30;;;;;;;6.55;2.92;;;19.40;92.30;;;;;;5049638;28;20115;-80
2021/08/28 09:53:04;;;;;;;6.07;2.78;;;19.40;92.20;;;;;;5055952;28;20154;-81
2021/08/28 09:55:32;;;;;;;5.05;2.58;;;19.30;92.00;;;;;;5048101;28;20021;-82
2021/08/28 09:57:59;;;;;;;5.18;2.78;;;19.30;92.00;;;;;;5049597;28;20030;-80
2021/08/28 10:00:24;;;;;;;5.72;2.72;;;19.30;92.00;;;;;;5048338;28;20086;-80
2021/08/28 10:03:08;;;;;;;5.38;2.67;;;19.30;91.90;;;;;;5049339;28;20025;-81
2021/08/28 10:05:39;;;;;;;4.40;2.40;;;19.30;91.80;;;;;;5048613;28;20484;-82
2021/08/28 10:08:06;;;;;;;5.53;2.37;;;19.40;91.70;;;;;;5049504;28;20068;-81
2021/08/28 10:10:34;;;;;;;5.75;2.78;;;19.50;91.60;;;;;;5048802;28;20469;-82
2021/08/28 10:13:02;;;;;;;6.28;2.50;;;19.60;91.40;;;;;;5048963;28;20033;-80
2021/08/28 10:15:29;;;;;;;6.22;2.90;;;19.70;90.70;;;;;;5048921;28;20107;-81
2021/08/28 10:17:57;;;;;;;7.53;2.83;;;19.90;90.50;;;;;;5048821;28;20021;-82
2021/08/28 10:20:24;;;;;;;4.22;2.25;;;20.00;90.20;;;;;;5049810;28;20021;-82
2021/08/28 10:22:53;;;;;;;4.28;2.40;;;20.20;89.70;;;;;;5052757;28;20025;-81
2021/08/28 10:25:21;;;;;;;4.93;2.78;;;20.30;89.30;;;;;;5052795;28;20025;-81
2021/08/28 10:27:48;;;;;;;11.13;5.95;;;20.30;89.00;;;;;;5050737;28;20029;-81
2021/08/28 10:30:15;;;;;;;7.15;4.05;;;20.40;88.50;;;;;;5052798;28;20021;-81
2021/08/28 10:32:41;;;;;;;4.97;2.67;;;20.50;87.90;;;;;;5052379;28;20120;-82
2021/08/28 10:35:08;;;;;;;4.85;2.30;;;20.40;87.40;;;;;;5052844;28;20052;-80
2021/08/28 10:37:34;;;;;;;4.65;2.10;;;20.50;87.20;;;;;;5052089;28;20040;-81
2021/08/28 10:40:00;;;;;;;5.43;2.10;;;20.50;87.00;;;;;;5051916;28;20045;-81
2021/08/28 10:42:31;;;;;;;4.15;2.30;;;20.60;86.70;;;;;;5051257;28;20384;-82
2021/08/28 10:45:00;;;;;;;4.77;2.03;;;20.60;86.50;;;;;;5052859;28;20454;-75
2021/08/28 10:47:31;;;;;;;3.92;1.90;;;20.70;85.90;;;;;;5049721;28;20272;-75
2021/08/28 10:50:01;;;;;;;;;;;20.70;85.30;;;;;;5050999;28;20036;-75
2021/08/28 10:52:27;;;;;;;3.65;2.00;;;20.70;85.20;;;;;;5053701;28;19905;-75
2021/08/28 10:54:58;;;;;;;2.58;1.50;;;20.60;84.40;;;;;;5054773;28;20017;-75
2021/08/28 10:57:30;;;;;;;4.95;1.98;;;20.60;84.60;;;;;;5052792;28;20134;-74
2021/08/28 11:00:12;;;;;;;4.75;1.90;;;20.60;85.00;;;;;;5054519;28;20166;-74
2021/08/28 11:02:58;;;;;;;3.10;1.70;;;20.50;84.10;;;;;;5053849;28;20021;-74
2021/08/28 11:05:28;;;;;;;2.78;1.60;;;20.40;84.20;;;;;;5054251;28;20040;-75
2021/08/28 11:07:58;;;;;;;4.72;2.10;;;20.30;84.10;;;;;;5054370;28;20078;-75
2021/08/28 11:10:30;;;;;;;3.63;1.60;;;20.30;84.30;;;;;;5054016;28;20013;-75
2021/08/28 11:13:03;;;;;;;5.10;2.08;;;20.30;84.60;;;;;;5053841;28;20259;-75
2021/08/28 11:15:35;;;;;;;3.45;2.00;;;20.30;84.40;;;;;;5052084;28;20485;-75
2021/08/28 11:18:07;;;;;;;3.80;2.17;;;20.50;84.30;;;;;;5054004;28;20033;-75
2021/08/28 11:20:42;;;;;;;5.60;2.47;;;20.60;83.80;;;;;;5053377;28;20457;-75
2021/08/28 11:23:16;;;;;;;4.22;2.15;;;20.60;83.30;;;;;;5053028;28;20104;-75
2021/08/28 11:25:43;;;;;;;7.15;2.13;;;20.60;82.80;;;;;;5053461;28;20029;-75
2021/08/28 11:28:10;;;;;;;3.30;1.65;;;20.70;82.50;;;;;;5053771;28;20025;-74
2021/08/28 11:30:44;;;;;;;2.88;1.27;;;20.80;82.50;;;;;;5053307;28;20087;-75
2021/08/28 11:33:12;;;;;;;4.35;1.70;;;20.80;82.40;;;;;;5053087;28;20021;-75
2021/08/28 11:35:45;;;;;;;3.38;1.77;;;20.90;81.60;;;;;;5053480;28;20032;-74
2021/08/28 11:38:13;;;;;;;3.92;2.10;;;20.90;81.00;;;;;;5053170;28;20492;-75
2021/08/28 11:40:40;;;;;;;5.65;2.20;;;20.90;80.90;;;;;;5053440;28;20025;-75
2021/08/28 11:43:08;;;;;;;5.13;2.47;;;20.90;80.80;;;;;;5052349;28;20028;-75
2021/08/28 11:45:37;;;;;;;3.75;1.92;;;20.90;80.90;;;;;;5053038;28;20530;-75
2021/08/28 11:48:13;;;;;;;5.22;1.90;;;21.00;81.00;;;;;;5053462;28;20029;-75
2021/08/28 11:50:41;;;;;;;3.33;1.60;;;21.00;81.10;;;;;;5052990;28;20025;-76
2021/08/28 11:53:08;;;;;;;5.38;2.05;;;21.10;80.70;;;;;;5053441;28;20025;-74
2021/08/28 11:55:35;;;;;;;4.28;1.88;;;21.10;80.40;;;;;;5052742;28;20470;-75
2021/08/28 11:58:08;;;;;;;3.28;1.75;;;21.10;80.50;;;;;;5053188;28;20029;-75
2021/08/28 12:00:35;;;;;;;4.22;2.03;;;21.10;80.60;;;;;;5052654;28;20029;-74
2021/08/28 12:03:03;;;;;;;5.03;1.60;;;21.00;80.70;;;;;;5053399;28;20112;-75
2021/08/28 12:05:30;;;;;;;3.00;1.65;;;21.10;80.90;;;;;;5053205;28;20488;-74
2021/08/28 12:07:56;;;;;;;4.25;1.77;;;21.30;80.60;;;;;;5051245;28;20112;-74
2021/08/28 12:10:22;;;;;;;3.92;2.00;;;21.40;80.00;;;;;;5053175;28;20021;-75
2021/08/28 12:13:14;;;;;;;4.13;2.08;;;21.40;79.70;;;;;;5052296;28;20021;-74
2021/08/28 12:15:44;;;;;;;4.07;1.55;;;21.30;79.80;;;;;;5050124;28;20128;-74
2021/08/28 12:18:10;;;;;;;4.13;1.70;;;21.30;80.20;;;;;;5052846;28;20032;-74
2021/08/28 12:20:35;;;;;;;2.22;1.58;;;21.30;80.10;;;;;;5052216;28;20029;-75
2021/08/28 12:23:02;;;;;;;3.83;1.88;;;21.30;80.10;;;;;;5051402;28;20480;-75
2021/08/28 12:25:28;;;;;;;3.28;1.63;;;21.30;80.10;;;;;;5052874;28;20104;-75
2021/08/28 12:27:55;;;;;;;3.85;2.10;;;21.20;80.40;;;;;;5051999;28;20436;-74
2021/08/28 12:30:22;;;;;;;3.08;1.60;;;21.00;80.80;;;;;;5052348;28;20448;-75
2021/08/28 12:32:48;;;;;;;4.43;1.58;;;20.80;81.00;;;;;;5051761;28;20372;-74
2021/08/28 12:35:14;;;;;;;2.83;1.38;;;20.70;81.30;;;;;;5052618;28;20073;-75
2021/08/28 12:37:40;;;;;;;3.83;1.80;;;20.70;81.70;;;;;;5050581;28;20494;-74
2021/08/28 12:40:14;;;;;;;9.48;5.28;;;20.80;81.50;;;;;;5052339;28;20460;-74
2021/08/28 12:42:43;;;;;;;4.97;2.70;;;20.90;81.30;;;;;;5051546;28;20029;-74
2021/08/28 12:45:14;;;;;;;3.15;1.80;;;21.10;80.70;;;;;;5051514;28;20017;-74
2021/08/28 12:47:45;;;;;;;2.97;1.60;;;21.20;80.40;;;;;;5051942;28;20089;-75
2021/08/28 12:50:12;;;;;;;2.58;1.50;;;21.20;80.00;;;;;;5052285;28;20064;-76